createdAt,value
2018-02-16T00:00:25.503Z,3.20
2018-02-16T00:02:57.947Z,3.20
2018-02-16T00:05:30.428Z,3.20
2018-02-16T00:08:02.906Z,3.20
2018-02-16T00:10:35.352Z,3.20
2018-02-16T00:13:08.599Z,3.30
2018-02-16T01:46:36.864Z,3.70
2018-02-16T01:49:09.336Z,3.70
2018-02-16T01:51:41.788Z,3.70
2018-02-16T01:54:14.264Z,3.70
2018-02-16T01:56:46.735Z,3.70
2018-02-16T01:59:19.952Z,3.70
2018-02-16T03:32:48.580Z,3.20
2018-02-16T03:35:21.059Z,3.20
2018-02-16T03:37:53.531Z,3.20
2018-02-16T03:40:25.991Z,3.20
2018-02-16T03:42:58.467Z,3.20
2018-02-16T05:32:06.932Z,3.40
2018-02-16T05:34:39.405Z,3.40
2018-02-16T05:37:11.843Z,3.40
2018-02-16T05:39:44.315Z,3.40
2018-02-16T05:42:16.760Z,3.40
2018-02-16T05:44:49.240Z,3.40
2018-02-16T05:47:21.693Z,3.40
2018-02-16T05:49:54.158Z,3.40
2018-02-16T05:52:26.635Z,3.40
2018-02-16T05:54:59.081Z,3.40
2018-02-16T05:57:32.316Z,3.50
2018-02-16T06:00:04.788Z,3.40
2018-02-16T06:02:37.370Z,3.50
2018-02-16T06:05:09.814Z,3.40
2018-02-16T06:07:42.283Z,3.50
2018-02-16T06:10:14.778Z,3.50
2018-02-16T06:12:47.228Z,3.50
2018-02-16T06:15:20.473Z,3.50
2018-02-16T06:17:52.925Z,3.50
2018-02-16T06:20:25.407Z,3.50
2018-02-16T06:22:57.849Z,3.50
2018-02-16T06:25:31.080Z,3.50
2018-02-16T06:28:03.560Z,3.50
2018-02-16T06:30:36.019Z,3.50
2018-02-16T06:33:08.496Z,3.50
2018-02-16T06:35:40.943Z,3.60
2018-02-16T06:38:13.398Z,3.60
2018-02-16T06:40:45.846Z,3.60
2018-02-16T06:43:18.325Z,3.60
2018-02-16T06:45:50.775Z,3.60
2018-02-16T06:48:23.244Z,3.70
2018-02-16T06:50:55.688Z,3.60
2018-02-16T06:53:28.910Z,3.70
2018-02-16T06:56:01.391Z,3.70
2018-02-16T06:58:33.839Z,3.70
2018-02-16T07:01:06.332Z,3.70
2018-02-16T07:03:38.772Z,3.70
2018-02-16T07:06:11.248Z,3.70
2018-02-16T07:08:43.698Z,3.70
2018-02-16T07:11:16.179Z,3.70
2018-02-16T07:13:48.627Z,3.70
2018-02-16T07:16:21.100Z,3.70
2018-02-16T07:18:53.566Z,3.70
2018-02-16T07:21:26.012Z,3.70
2018-02-16T07:23:59.251Z,3.70
2018-02-16T07:26:31.699Z,3.70
2018-02-16T07:29:04.163Z,3.70
2018-02-16T09:02:31.742Z,4.10
2018-02-16T09:05:04.193Z,4.20
2018-02-16T09:07:37.443Z,4.20
2018-02-16T09:10:09.901Z,4.20
2018-02-16T09:12:42.382Z,4.30
2018-02-16T11:01:58.057Z,5.30
2018-02-16T11:04:36.250Z,5.40
2018-02-16T11:07:15.207Z,5.30
2018-02-16T11:09:47.660Z,5.30
2018-02-16T11:12:20.893Z,5.30
2018-02-16T11:14:53.379Z,5.30
2018-02-16T13:00:59.687Z,5.20
2018-02-16T13:03:32.126Z,5.20
2018-02-16T13:06:04.608Z,5.20
2018-02-16T13:08:37.820Z,5.20
2018-02-16T13:11:10.320Z,5.10
2018-02-16T13:13:42.754Z,5.20
2018-02-16T15:02:51.732Z,4.40
2018-02-16T15:05:24.210Z,4.50
2018-02-16T15:07:56.664Z,4.40
2018-02-16T15:10:29.959Z,4.40
2018-02-16T15:13:03.172Z,4.40
2018-02-16T15:46:55.853Z,4.40
2018-02-16T15:49:28.304Z,4.40
2018-02-16T15:52:00.760Z,4.40
2018-02-16T15:54:33.216Z,4.40
2018-02-16T15:57:05.699Z,4.40
2018-02-16T15:59:38.155Z,4.40
2018-02-16T16:02:10.619Z,4.40
2018-02-16T16:04:43.108Z,4.50
2018-02-16T16:07:15.557Z,4.50
2018-02-16T16:09:48.043Z,4.50
2018-02-16T16:12:20.487Z,4.60
2018-02-16T16:14:52.967Z,4.50
2018-02-16T16:17:25.442Z,4.60
2018-02-16T16:19:58.672Z,4.60
2018-02-16T16:22:31.148Z,4.60
2018-02-16T16:25:03.605Z,4.60
2018-02-16T16:27:36.844Z,4.60
2018-02-16T16:30:09.290Z,4.60
2018-02-16T16:32:41.756Z,4.60
2018-02-16T16:35:14.207Z,4.50
2018-02-16T16:37:47.441Z,4.60
2018-02-16T16:40:19.893Z,4.50
2018-02-16T16:42:52.376Z,4.60
2018-02-16T16:45:24.860Z,4.50
2018-02-16T16:47:57.361Z,4.50
2018-02-16T16:50:29.831Z,4.50
2018-02-16T16:53:02.287Z,4.50
2018-02-16T16:55:34.796Z,4.60
2018-02-16T16:58:07.222Z,4.50
2018-02-16T17:00:39.712Z,4.50
2018-02-16T17:03:12.159Z,4.50
2018-02-16T17:05:44.639Z,4.50
2018-02-16T17:08:17.095Z,4.50
2018-02-16T17:10:49.556Z,4.50
2018-02-16T17:13:22.028Z,4.50
2018-02-16T17:15:55.246Z,4.50
2018-02-16T17:18:27.301Z,4.50
2018-02-16T17:21:00.071Z,4.30
2018-02-16T17:23:32.111Z,4.30
2018-02-16T17:26:04.142Z,4.30
2018-02-16T17:28:36.146Z,4.20
2018-02-16T17:31:08.170Z,4.10
2018-02-16T17:33:40.176Z,4.00
2018-02-16T17:36:12.233Z,4.00
2018-02-16T17:38:44.237Z,3.90
2018-02-16T17:41:17.044Z,3.90
2018-02-16T17:43:49.060Z,3.80
2018-02-16T17:46:21.082Z,3.90
2018-02-16T17:48:53.086Z,3.90
2018-02-16T17:51:25.135Z,3.80
2018-02-16T17:53:57.141Z,3.90
2018-02-16T17:56:29.935Z,3.80
2018-02-16T17:59:02.725Z,3.80
2018-02-16T18:01:34.735Z,3.80
2018-02-16T18:04:06.778Z,3.80
2018-02-16T18:06:38.779Z,3.80
2018-02-16T18:09:10.815Z,3.80
2018-02-16T18:11:42.819Z,3.80
2018-02-16T18:14:14.863Z,3.80
2018-02-16T18:16:46.866Z,3.70
2018-02-16T22:50:14.097Z,3.70
2018-02-16T22:52:46.588Z,4.00
2018-02-16T22:55:19.053Z,4.00
2018-02-16T22:57:51.526Z,4.10
2018-02-16T23:00:24.016Z,4.10
2018-02-16T23:02:56.467Z,4.10
2018-02-16T23:05:28.959Z,4.10
2018-02-16T23:08:01.411Z,4.20
2018-02-16T23:10:34.658Z,4.20
2018-02-16T23:13:07.108Z,4.20
2018-02-16T23:15:39.611Z,4.20
2018-02-16T23:18:12.059Z,4.20
2018-02-16T23:20:44.548Z,4.20
2018-02-16T23:23:17.040Z,4.20
2018-02-16T23:25:49.504Z,4.20
2018-02-16T23:28:22.098Z,4.20
2018-02-16T23:30:54.546Z,4.20
2018-02-16T23:33:27.028Z,4.20
2018-02-16T23:35:59.480Z,4.20
2018-02-16T23:38:31.952Z,4.20
2018-02-16T23:41:04.402Z,4.20
2018-02-16T23:43:36.831Z,4.20
2018-02-16T23:46:10.052Z,4.20
2018-02-16T23:48:42.543Z,4.20
2018-02-16T23:51:14.988Z,4.20
2018-02-16T23:53:47.482Z,4.20
2018-02-16T23:56:19.957Z,4.20
2018-02-16T23:58:52.421Z,4.20
